Map

Track Data

SID SEASON NUMBER BASIN SUBBASIN NAME ISO_TIME NATURE LAT LON WMO_WIND WMO_PRES WMO_AGENCY TRACK_TYPE DIST2LAND LANDFALL IFLAG USA_AGENCY USA_ATCF_ID USA_LAT USA_LON USA_RECORD USA_STATUS USA_WIND USA_PRES USA_SSHS USA_R34_NE USA_R34_SE USA_R34_SW USA_R34_NW USA_R50_NE USA_R50_SE USA_R50_SW USA_R50_NW USA_R64_NE USA_R64_SE USA_R64_SW USA_R64_NW USA_POCI USA_ROCI USA_RMW USA_EYE TOKYO_LAT TOKYO_LON TOKYO_GRADE TOKYO_WIND TOKYO_PRES TOKYO_R50_DIR TOKYO_R50_LONG TOKYO_R50_SHORT TOKYO_R30_DIR TOKYO_R30_LONG TOKYO_R30_SHORT TOKYO_LAND CMA_LAT CMA_LON CMA_CAT CMA_WIND CMA_PRES HKO_LAT HKO_LON HKO_CAT HKO_WIND HKO_PRES NEWDELHI_LAT NEWDELHI_LON NEWDELHI_GRADE NEWDELHI_WIND NEWDELHI_PRES NEWDELHI_CI NEWDELHI_DP NEWDELHI_POCI REUNION_LAT REUNION_LON REUNION_TYPE REUNION_WIND REUNION_PRES REUNION_TNUM REUNION_CI REUNION_RMW REUNION_R34_NE REUNION_R34_SE REUNION_R34_SW REUNION_R34_NW REUNION_R50_NE REUNION_R50_SE REUNION_R50_SW REUNION_R50_NW REUNION_R64_NE REUNION_R64_SE REUNION_R64_SW REUNION_R64_NW BOM_LAT BOM_LON BOM_TYPE BOM_WIND BOM_PRES BOM_TNUM BOM_CI BOM_RMW BOM_R34_NE BOM_R34_SE BOM_R34_SW BOM_R34_NW BOM_R50_NE BOM_R50_SE BOM_R50_SW BOM_R50_NW BOM_R64_NE BOM_R64_SE BOM_R64_SW BOM_R64_NW BOM_ROCI BOM_POCI BOM_EYE BOM_POS_METHOD BOM_PRES_METHOD NADI_LAT NADI_LON NADI_CAT NADI_WIND NADI_PRES WELLINGTON_LAT WELLINGTON_LON WELLINGTON_WIND WELLINGTON_PRES DS824_LAT DS824_LON DS824_STAGE DS824_WIND DS824_PRES TD9636_LAT TD9636_LON TD9636_STAGE TD9636_WIND TD9636_PRES TD9635_LAT TD9635_LON TD9635_WIND TD9635_PRES TD9635_ROCI NEUMANN_LAT NEUMANN_LON NEUMANN_CLASS NEUMANN_WIND NEUMANN_PRES MLC_LAT MLC_LON MLC_CLASS MLC_WIND MLC_PRES USA_GUST BOM_GUST BOM_GUST_PER REUNION_GUST REUNION_GUST_PER USA_SEAHGT USA_SEARAD_NE USA_SEARAD_SE USA_SEARAD_SW USA_SEARAD_NW STORM_SPEED STORM_DIR
1902032S07075 1902 1 SI MM NOT_NAMED 1902-01-31 18:00:00 NR -6.90000 74.8000 spur-merge 1569 1569 __________O___ -1 -6.90000 74.8000 7 11 240
1902032S07075 1902 1 SI MM NOT_NAMED 1902-01-31 21:00:00 NR -7.17395 74.3146 spur-merge 1622 1622 __________P___ -1 -7.17395 74.3146 7 11 240
1902032S07075 1902 1 SI MM NOT_NAMED 1902-02-01 00:00:00 NR -7.44812 73.8431 spur-merge 1666 1666 __________P___ -1 -7.44812 73.8431 7 11 239
1902032S07075 1902 1 SI MM NOT_NAMED 1902-02-01 03:00:00 NR -7.72320 73.4000 spur-merge 1715 1715 __________P___ -1 -7.72320 73.4000 7 10 237
1902032S07075 1902 1 SI MM NOT_NAMED 1902-02-01 06:00:00 NR -8.00000 73.0000 spur-merge 1765 1765 __________O___ -1 -8.00000 73.0000 7 9 233
1902032S07075 1902 1 SI MM NOT_NAMED 1902-02-01 09:00:00 NR -8.27874 72.6510 spur-merge 1810 1810 __________P___ -1 -8.27874 72.6510 7 9 230
1902032S07075 1902 1 SI MM NOT_NAMED 1902-02-01 12:00:00 NR -8.55705 72.3346 spur-merge 1861 1861 __________P___ -1 -8.55705 72.3346 7 8 228
1902032S07075 1902 1 SI MM NOT_NAMED 1902-02-01 15:00:00 NR -8.83187 72.0260 spur-merge 1896 1896 __________P___ -1 -8.83187 72.0260 7 8 229
1902032S07075 1902 1 SI MM NOT_NAMED 1902-02-01 18:00:00 NR -9.10000 71.7000 spur-merge 1942 1895 __________O___ -1 -9.10000 71.7000 7 9 233
1902032S07075 1902 1 SI MM NOT_NAMED 1902-02-01 21:00:00 NR -9.35722 71.3134 spur-merge 1888 1840 __________P___ -1 -9.35722 71.3134 7 9 237
1902032S07075 1902 1 SI MM NOT_NAMED 1902-02-02 00:00:00 NR -9.60756 70.9074 spur-merge 1840 1793 __________P___ -1 -9.60756 70.9074 7 9 238
1902032S07075 1902 1 SI MM NOT_NAMED 1902-02-02 03:00:00 NR -9.85409 70.4977 spur-merge 1785 1737 __________P___ -1 -9.85409 70.4977 7 9 238
1902032S07075 1902 1 SI MM NOT_NAMED 1902-02-02 06:00:00 NR -10.1000 70.1000 spur-merge 1737 1690 __________O___ -1 -10.1000 70.1000 7 9 236
1902032S07075 1902 1 SI MM NOT_NAMED 1902-02-02 09:00:00 NR -10.3580 69.7274 spur-merge 1682 1643 __________P___ -1 -10.3580 69.7274 7 9 234
1902032S07075 1902 1 SI MM NOT_NAMED 1902-02-02 12:00:00 NR -10.6148 69.3699 spur-merge 1643 1588 __________P___ -1 -10.6148 69.3699 7 9 234
1902032S07075 1902 1 SI MM NOT_NAMED 1902-02-02 15:00:00 NR -10.8643 69.0274 spur-merge 1588 1549 __________P___ -1 -10.8643 69.0274 7 8 234
1902032S07075 1902 1 SI MM NOT_NAMED 1902-02-02 18:00:00 NR -11.1000 68.7000 spur-merge 1549 1509 __________O___ -1 -11.1000 68.7000 7 8 235
1902032S07075 1902 1 SI MM NOT_NAMED 1902-02-02 21:00:00 NR -11.3019 68.4014 spur-merge 1509 1470 __________P___ -1 -11.3019 68.4014 7 7 236
1902032S07075 1902 1 SI MM NOT_NAMED 1902-02-03 00:00:00 NR -11.4921 68.1143 spur-merge 1470 1431 __________P___ -1 -11.4921 68.1143 7 7 236
1902032S07075 1902 1 SI MM NOT_NAMED 1902-02-03 03:00:00 NR -11.6862 67.8201 spur-merge 1431 1392 __________P___ -1 -11.6862 67.8201 7 7 236
1902032S07075 1902 1 SI MM NOT_NAMED 1902-02-03 06:00:00 NR -11.9000 67.5000 spur-merge 1392 1344 __________O___ -1 -11.9000 67.5000 7 8 235
1902032S07075 1902 1 SI MM NOT_NAMED 1902-02-03 09:00:00 NR -12.1617 67.1168 spur-merge 1337 1290 __________P___ -1 -12.1617 67.1168 7 9 235
1902032S07075 1902 1 SI MM NOT_NAMED 1902-02-03 12:00:00 NR -12.4427 66.7078 spur-merge 1290 1235 __________P___ -1 -12.4427 66.7078 7 10 235
1902032S07075 1902 1 SI MM NOT_NAMED 1902-02-03 15:00:00 NR -12.7273 66.2949 spur-merge 1235 1180 __________P___ -1 -12.7273 66.2949 7 10 235
1902032S07075 1902 1 SI MM NOT_NAMED 1902-02-03 18:00:00 NR -13.0000 65.9000 spur-merge 1180 1141 __________O___ -1 -13.0000 65.9000 7 9 235
1902032S07075 1902 1 SI MM NOT_NAMED 1902-02-03 21:00:00 NR -13.2309 65.5651 spur-merge 1141 1102 __________P___ -1 -13.2309 65.5651 7 8 235
1902032S07075 1902 1 SI MM NOT_NAMED 1902-02-04 00:00:00 NR -13.4495 65.2492 spur-merge 1095 1056 __________P___ -1 -13.4495 65.2492 7 8 235
1902032S07075 1902 1 SI MM NOT_NAMED 1902-02-04 03:00:00 NR -13.6683 64.9338 spur-merge 1048 1009 __________P___ -1 -13.6683 64.9338 7 8 234
1902032S07075 1902 1 SI MM NOT_NAMED 1902-02-04 06:00:00 NR -13.9000 64.6000 spur-merge 1009 963 __________O___ -1 -13.9000 64.6000 7 8 234
1902032S07075 1902 1 SI MM NOT_NAMED 1902-02-04 09:00:00 NR -14.1605 64.2255 spur-merge 955 916 __________P___ -1 -14.1605 64.2255 7 9 234
1902032S07075 1902 1 SI MM NOT_NAMED 1902-02-04 12:00:00 NR -14.4349 63.8298 spur-merge 908 854 __________P___ -1 -14.4349 63.8298 7 10 235
1902032S07075 1902 1 SI MM NOT_NAMED 1902-02-04 15:00:00 NR -14.7168 63.4192 spur-merge 854 800 __________P___ -1 -14.7168 63.4192 7 10 235
1902032S07075 1902 1 SI MM NOT_NAMED 1902-02-04 18:00:00 NR -15.0000 63.0000 spur-merge 800 755 __________O___ -1 -15.0000 63.0000 7 10 236
1902032S07075 1902 1 SI MM NOT_NAMED 1902-02-04 21:00:00 NR -15.2625 62.5897 spur-merge 746 701 __________P___ -1 -15.2625 62.5897 7 10 237
1902032S07075 1902 1 SI MM NOT_NAMED 1902-02-05 00:00:00 NR -15.5271 62.1716 spur-merge 701 647 __________P___ -1 -15.5271 62.1716 7 10 236
1902032S07075 1902 1 SI MM NOT_NAMED 1902-02-05 03:00:00 NR -15.8031 61.7427 spur-merge 640 587 __________P___ -1 -15.8031 61.7427 7 10 236
1902032S07075 1902 1 SI MM NOT_NAMED 1902-02-05 06:00:00 NR -16.1000 61.3000 spur-merge 587 527 __________O___ -1 -16.1000 61.3000 7 11 235
1902032S07075 1902 1 SI MM NOT_NAMED 1902-02-05 09:00:00 NR -16.4245 60.8191 spur-merge 527 466 __________P___ -1 -16.4245 60.8191 7 12 234
1902032S07075 1902 1 SI MM NOT_NAMED 1902-02-05 12:00:00 NR -16.7703 60.3276 spur-merge 459 407 __________P___ -1 -16.7703 60.3276 7 12 233
1902032S07075 1902 1 SI MM NOT_NAMED 1902-02-05 15:00:00 NR -17.1308 59.8472 spur-merge 402 341 __________P___ -1 -17.1308 59.8472 7 12 231
1902032S07075 1902 1 SI MM NOT_NAMED 1902-02-05 18:00:00 NR -17.5000 59.4000 spur-merge 341 291 __________O___ -1 -17.5000 59.4000 7 11 229
1902032S07075 1902 1 SI MM NOT_NAMED 1902-02-05 21:00:00 NR -17.8390 59.0010 spur-merge 291 237 __________P___ -1 -17.8390 59.0010 7 10 226
1902032S07075 1902 1 SI MM NOT_NAMED 1902-02-06 00:00:00 NR -18.1896 58.6388 spur-merge 232 189 __________P___ -1 -18.1896 58.6388 7 10 222
1902032S07075 1902 1 SI MM NOT_NAMED 1902-02-06 03:00:00 NR -18.5704 58.3072 spur-merge 179 126 __________P___ -1 -18.5704 58.3072 7 10 217
1902032S07075 1902 1 SI MM NOT_NAMED 1902-02-06 06:00:00 NR -19.0000 58.0000 spur-merge 126 67 __________O___ -1 -19.0000 58.0000 7 11 212
1902032S07075 1902 1 SI MM NOT_NAMED 1902-02-06 09:00:00 NR -19.4955 57.6872 spur-merge 67 15 __________P___ -1 -19.4912 57.7108 7 12 209
1902032S07075 1902 1 SI MM NOT_NAMED 1902-02-06 12:00:00 NR -20.0399 57.3975 spur-merge 15 10 __________P___ -1 -20.0329 57.4345 7 12 205
1902032S07075 1902 1 SI MM NOT_NAMED 1902-02-06 15:00:00 NR -20.6144 57.1340 spur-merge 23 23 __________P___ -1 -20.6082 57.1658 7 13 202
1902032S07075 1902 1 SI MM NOT_NAMED 1902-02-06 18:00:00 NR -21.2000 56.9000 spur-merge 88 __________O___ -1 -21.2000 56.9000 7 13 200

About IBTrACS Database

This database is a web-friendly format of International Best Track Archive for Climate Stewardship (IBTrACS), a global best track data archive curated by NOAA dating back to 1842.

Updated: 2021-11-26